sensor_id;sensor_type;location;lat;lon;timestamp;temperature;humidity
24226;DHT22;51462;51.422;5.514;2023-07-31T00:02:13;17.50;99.90
24226;DHT22;51462;51.422;5.514;2023-07-31T00:04:39;17.40;99.90
24226;DHT22;51462;51.422;5.514;2023-07-31T00:07:04;17.20;99.90
24226;DHT22;51462;51.422;5.514;2023-07-31T00:09:34;17.20;99.90
24226;DHT22;51462;51.422;5.514;2023-07-31T00:12:00;17.10;99.90
24226;DHT22;51462;51.422;5.514;2023-07-31T00:14:25;17.40;99.90
24226;DHT22;51462;51.422;5.514;2023-07-31T00:16:51;17.50;99.90
24226;DHT22;51462;51.422;5.514;2023-07-31T00:19:17;17.40;99.90
24226;DHT22;51462;51.422;5.514;2023-07-31T00:21:43;17.40;99.90
24226;DHT22;51462;51.422;5.514;2023-07-31T00:24:09;17.50;99.90
24226;DHT22;51462;51.422;5.514;2023-07-31T00:26:34;17.30;99.90
24226;DHT22;51462;51.422;5.514;2023-07-31T00:29:00;17.40;99.90
24226;DHT22;51462;51.422;5.514;2023-07-31T00:31:25;17.30;99.90
24226;DHT22;51462;51.422;5.514;2023-07-31T00:33:51;17.30;99.90
24226;DHT22;51462;51.422;5.514;2023-07-31T00:36:16;17.40;99.90
24226;DHT22;51462;51.422;5.514;2023-07-31T00:38:43;17.40;99.90
24226;DHT22;51462;51.422;5.514;2023-07-31T00:41:09;17.50;99.90
24226;DHT22;51462;51.422;5.514;2023-07-31T00:43:34;17.30;99.90
24226;DHT22;51462;51.422;5.514;2023-07-31T00:46:00;17.30;99.90
24226;DHT22;51462;51.422;5.514;2023-07-31T00:48:26;17.20;99.90
24226;DHT22;51462;51.422;5.514;2023-07-31T00:50:52;17.10;99.90
24226;DHT22;51462;51.422;5.514;2023-07-31T00:53:18;17.30;99.90
24226;DHT22;51462;51.422;5.514;2023-07-31T00:55:44;17.50;99.90
24226;DHT22;51462;51.422;5.514;2023-07-31T00:58:10;17.40;99.90
24226;DHT22;51462;51.422;5.514;2023-07-31T01:00:35;17.40;99.90
24226;DHT22;51462;51.422;5.514;2023-07-31T01:03:01;17.50;99.90
24226;DHT22;51462;51.422;5.514;2023-07-31T01:08:32;17.50;99.90
24226;DHT22;51462;51.422;5.514;2023-07-31T01:11:18;17.20;99.90
24226;DHT22;51462;51.422;5.514;2023-07-31T01:13:45;17.10;99.90
24226;DHT22;51462;51.422;5.514;2023-07-31T01:16:11;17.00;99.90
24226;DHT22;51462;51.422;5.514;2023-07-31T01:18:37;17.00;99.90
24226;DHT22;51462;51.422;5.514;2023-07-31T01:21:13;17.30;99.90
24226;DHT22;51462;51.422;5.514;2023-07-31T01:26:13;17.00;99.90
24226;DHT22;51462;51.422;5.514;2023-07-31T01:28:55;17.00;99.90
24226;DHT22;51462;51.422;5.514;2023-07-31T01:31:25;17.10;99.90
24226;DHT22;51462;51.422;5.514;2023-07-31T01:33:53;17.30;99.90
24226;DHT22;51462;51.422;5.514;2023-07-31T01:36:20;17.30;99.90
24226;DHT22;51462;51.422;5.514;2023-07-31T01:38:46;17.30;99.90
24226;DHT22;51462;51.422;5.514;2023-07-31T01:41:11;17.10;99.90
24226;DHT22;51462;51.422;5.514;2023-07-31T01:43:37;17.00;99.90
24226;DHT22;51462;51.422;5.514;2023-07-31T01:46:02;17.10;99.90
24226;DHT22;51462;51.422;5.514;2023-07-31T01:48:28;17.00;99.90
24226;DHT22;51462;51.422;5.514;2023-07-31T01:50:54;16.90;99.90
24226;DHT22;51462;51.422;5.514;2023-07-31T01:53:19;17.10;99.90
24226;DHT22;51462;51.422;5.514;2023-07-31T01:55:45;17.30;99.90
24226;DHT22;51462;51.422;5.514;2023-07-31T01:58:10;17.30;99.90
24226;DHT22;51462;51.422;5.514;2023-07-31T02:00:36;17.00;99.90
24226;DHT22;51462;51.422;5.514;2023-07-31T02:03:01;16.90;99.90
24226;DHT22;51462;51.422;5.514;2023-07-31T02:05:27;16.90;99.90
24226;DHT22;51462;51.422;5.514;2023-07-31T02:07:53;17.10;99.90
24226;DHT22;51462;51.422;5.514;2023-07-31T02:10:18;17.10;99.90
24226;DHT22;51462;51.422;5.514;2023-07-31T02:12:44;17.00;99.90
24226;DHT22;51462;51.422;5.514;2023-07-31T02:15:10;17.00;99.90
24226;DHT22;51462;51.422;5.514;2023-07-31T02:17:35;17.00;99.90
24226;DHT22;51462;51.422;5.514;2023-07-31T02:20:01;16.90;99.90
24226;DHT22;51462;51.422;5.514;2023-07-31T02:22:26;17.20;99.90
24226;DHT22;51462;51.422;5.514;2023-07-31T02:24:52;17.10;99.90
24226;DHT22;51462;51.422;5.514;2023-07-31T02:27:17;17.10;99.90
24226;DHT22;51462;51.422;5.514;2023-07-31T02:29:43;17.20;99.90
24226;DHT22;51462;51.422;5.514;2023-07-31T02:32:08;17.00;99.90
24226;DHT22;51462;51.422;5.514;2023-07-31T02:34:34;16.90;99.90
24226;DHT22;51462;51.422;5.514;2023-07-31T02:37:00;17.00;99.90
24226;DHT22;51462;51.422;5.514;2023-07-31T02:39:25;16.90;99.90
24226;DHT22;51462;51.422;5.514;2023-07-31T02:41:51;16.90;99.90
24226;DHT22;51462;51.422;5.514;2023-07-31T02:44:16;17.00;99.90
24226;DHT22;51462;51.422;5.514;2023-07-31T02:46:42;17.20;99.90
24226;DHT22;51462;51.422;5.514;2023-07-31T02:49:07;17.10;99.90
24226;DHT22;51462;51.422;5.514;2023-07-31T02:51:33;16.90;99.90
24226;DHT22;51462;51.422;5.514;2023-07-31T02:53:59;17.10;99.90
24226;DHT22;51462;51.422;5.514;2023-07-31T02:56:24;16.90;99.90
24226;DHT22;51462;51.422;5.514;2023-07-31T02:58:50;16.90;99.90
24226;DHT22;51462;51.422;5.514;2023-07-31T03:01:15;16.90;99.90
24226;DHT22;51462;51.422;5.514;2023-07-31T03:03:41;17.00;99.90
24226;DHT22;51462;51.422;5.514;2023-07-31T03:06:07;17.10;99.90
24226;DHT22;51462;51.422;5.514;2023-07-31T03:08:33;16.90;99.90
24226;DHT22;51462;51.422;5.514;2023-07-31T03:10:58;17.10;99.90
24226;DHT22;51462;51.422;5.514;2023-07-31T03:13:24;17.20;99.90
24226;DHT22;51462;51.422;5.514;2023-07-31T03:15:50;17.10;99.90
24226;DHT22;51462;51.422;5.514;2023-07-31T03:18:15;17.10;99.90
24226;DHT22;51462;51.422;5.514;2023-07-31T03:20:44;17.00;99.90
24226;DHT22;51462;51.422;5.514;2023-07-31T03:23:10;16.90;99.90
24226;DHT22;51462;51.422;5.514;2023-07-31T03:25:35;17.10;99.90
24226;DHT22;51462;51.422;5.514;2023-07-31T03:28:01;16.90;99.90
24226;DHT22;51462;51.422;5.514;2023-07-31T03:30:26;17.00;99.90
24226;DHT22;51462;51.422;5.514;2023-07-31T03:32:52;17.10;99.90
24226;DHT22;51462;51.422;5.514;2023-07-31T03:35:18;17.10;99.90
24226;DHT22;51462;51.422;5.514;2023-07-31T03:37:43;17.30;99.90
24226;DHT22;51462;51.422;5.514;2023-07-31T03:40:09;17.20;99.90
24226;DHT22;51462;51.422;5.514;2023-07-31T03:42:35;17.10;99.90
24226;DHT22;51462;51.422;5.514;2023-07-31T03:45:01;17.20;99.90
24226;DHT22;51462;51.422;5.514;2023-07-31T03:47:27;17.10;99.90
24226;DHT22;51462;51.422;5.514;2023-07-31T03:49:52;17.10;99.90
24226;DHT22;51462;51.422;5.514;2023-07-31T03:52:18;17.10;99.90
24226;DHT22;51462;51.422;5.514;2023-07-31T03:54:43;17.10;99.90
24226;DHT22;51462;51.422;5.514;2023-07-31T03:57:10;17.30;99.90
24226;DHT22;51462;51.422;5.514;2023-07-31T03:59:36;17.30;99.90
24226;DHT22;51462;51.422;5.514;2023-07-31T04:02:04;17.20;99.90
24226;DHT22;51462;51.422;5.514;2023-07-31T04:04:30;17.10;99.90
24226;DHT22;51462;51.422;5.514;2023-07-31T04:06:55;17.10;99.90
24226;DHT22;51462;51.422;5.514;2023-07-31T04:09:21;17.20;99.90
24226;DHT22;51462;51.422;5.514;2023-07-31T04:11:47;17.30;99.90
24226;DHT22;51462;51.422;5.514;2023-07-31T04:14:12;17.30;99.90
24226;DHT22;51462;51.422;5.514;2023-07-31T04:16:38;17.40;99.90
24226;DHT22;51462;51.422;5.514;2023-07-31T04:19:04;17.40;99.90
24226;DHT22;51462;51.422;5.514;2023-07-31T04:21:29;17.50;99.90
24226;DHT22;51462;51.422;5.514;2023-07-31T04:23:55;17.30;99.90
24226;DHT22;51462;51.422;5.514;2023-07-31T04:26:21;17.40;99.90
24226;DHT22;51462;51.422;5.514;2023-07-31T04:28:47;17.60;99.90
24226;DHT22;51462;51.422;5.514;2023-07-31T04:31:12;17.50;99.90
24226;DHT22;51462;51.422;5.514;2023-07-31T04:33:38;17.70;99.90
24226;DHT22;51462;51.422;5.514;2023-07-31T04:36:05;17.50;99.90
24226;DHT22;51462;51.422;5.514;2023-07-31T04:38:30;17.50;99.90
24226;DHT22;51462;51.422;5.514;2023-07-31T04:40:56;17.60;99.90
24226;DHT22;51462;51.422;5.514;2023-07-31T04:43:22;17.60;99.90
24226;DHT22;51462;51.422;5.514;2023-07-31T04:45:48;17.60;99.90
24226;DHT22;51462;51.422;5.514;2023-07-31T04:48:14;17.50;99.90
24226;DHT22;51462;51.422;5.514;2023-07-31T04:50:40;17.50;99.90
24226;DHT22;51462;51.422;5.514;2023-07-31T04:53:05;17.60;99.90
24226;DHT22;51462;51.422;5.514;2023-07-31T04:55:31;17.60;99.90
24226;DHT22;51462;51.422;5.514;2023-07-31T04:57:58;17.50;99.90
24226;DHT22;51462;51.422;5.514;2023-07-31T05:00:24;17.40;99.90
24226;DHT22;51462;51.422;5.514;2023-07-31T05:02:50;17.60;99.90
24226;DHT22;51462;51.422;5.514;2023-07-31T05:05:16;17.60;99.90
24226;DHT22;51462;51.422;5.514;2023-07-31T05:07:41;17.70;99.90
24226;DHT22;51462;51.422;5.514;2023-07-31T05:10:07;17.80;99.90
24226;DHT22;51462;51.422;5.514;2023-07-31T05:12:33;17.70;99.90
24226;DHT22;51462;51.422;5.514;2023-07-31T05:14:58;17.70;99.90
24226;DHT22;51462;51.422;5.514;2023-07-31T05:17:24;17.60;99.90
24226;DHT22;51462;51.422;5.514;2023-07-31T05:19:49;17.60;99.90
24226;DHT22;51462;51.422;5.514;2023-07-31T05:22:15;17.50;99.90
24226;DHT22;51462;51.422;5.514;2023-07-31T05:24:40;17.40;99.90
24226;DHT22;51462;51.422;5.514;2023-07-31T05:27:06;17.40;99.90
24226;DHT22;51462;51.422;5.514;2023-07-31T05:29:32;17.50;99.90
24226;DHT22;51462;51.422;5.514;2023-07-31T05:31:57;17.50;99.90
24226;DHT22;51462;51.422;5.514;2023-07-31T05:34:23;17.50;99.90
24226;DHT22;51462;51.422;5.514;2023-07-31T05:36:49;17.70;99.90
24226;DHT22;51462;51.422;5.514;2023-07-31T05:39:14;17.70;99.90
24226;DHT22;51462;51.422;5.514;2023-07-31T05:41:40;17.60;99.90
24226;DHT22;51462;51.422;5.514;2023-07-31T05:44:05;17.60;99.90
24226;DHT22;51462;51.422;5.514;2023-07-31T05:46:31;17.40;99.90
24226;DHT22;51462;51.422;5.514;2023-07-31T05:48:56;17.60;99.90
24226;DHT22;51462;51.422;5.514;2023-07-31T05:51:22;17.50;99.90
24226;DHT22;51462;51.422;5.514;2023-07-31T05:53:48;17.50;99.90
24226;DHT22;51462;51.422;5.514;2023-07-31T05:56:13;17.50;99.90
24226;DHT22;51462;51.422;5.514;2023-07-31T05:58:39;17.60;99.90
24226;DHT22;51462;51.422;5.514;2023-07-31T06:01:04;17.40;99.90
24226;DHT22;51462;51.422;5.514;2023-07-31T06:03:30;17.50;99.90
24226;DHT22;51462;51.422;5.514;2023-07-31T06:05:55;17.40;99.90
24226;DHT22;51462;51.422;5.514;2023-07-31T06:08:21;17.40;99.90
24226;DHT22;51462;51.422;5.514;2023-07-31T06:10:47;17.40;99.90
24226;DHT22;51462;51.422;5.514;2023-07-31T06:13:12;17.20;99.90
24226;DHT22;51462;51.422;5.514;2023-07-31T06:15:38;17.30;99.90
24226;DHT22;51462;51.422;5.514;2023-07-31T06:18:04;17.30;99.90
24226;DHT22;51462;51.422;5.514;2023-07-31T06:20:33;17.40;99.90
24226;DHT22;51462;51.422;5.514;2023-07-31T06:22:59;17.40;99.90
24226;DHT22;51462;51.422;5.514;2023-07-31T06:25:25;17.40;99.90
24226;DHT22;51462;51.422;5.514;2023-07-31T06:27:51;17.40;99.90
24226;DHT22;51462;51.422;5.514;2023-07-31T06:30:16;17.30;99.90
24226;DHT22;51462;51.422;5.514;2023-07-31T06:32:42;17.30;99.90
24226;DHT22;51462;51.422;5.514;2023-07-31T06:35:08;17.50;99.90
24226;DHT22;51462;51.422;5.514;2023-07-31T06:37:34;17.30;99.90
24226;DHT22;51462;51.422;5.514;2023-07-31T06:39:59;17.40;99.90
24226;DHT22;51462;51.422;5.514;2023-07-31T06:42:25;17.60;99.90
24226;DHT22;51462;51.422;5.514;2023-07-31T06:44:51;17.60;99.90
24226;DHT22;51462;51.422;5.514;2023-07-31T06:47:16;17.40;99.90
24226;DHT22;51462;51.422;5.514;2023-07-31T06:49:42;17.40;99.90
24226;DHT22;51462;51.422;5.514;2023-07-31T06:52:07;17.60;99.90
24226;DHT22;51462;51.422;5.514;2023-07-31T06:54:33;17.70;99.90
24226;DHT22;51462;51.422;5.514;2023-07-31T06:56:59;17.70;99.90
24226;DHT22;51462;51.422;5.514;2023-07-31T06:59:24;17.60;99.90
24226;DHT22;51462;51.422;5.514;2023-07-31T07:01:50;17.50;99.90
24226;DHT22;51462;51.422;5.514;2023-07-31T07:04:15;17.50;99.90
24226;DHT22;51462;51.422;5.514;2023-07-31T07:06:41;17.50;99.90
24226;DHT22;51462;51.422;5.514;2023-07-31T07:09:07;17.50;99.90
24226;DHT22;51462;51.422;5.514;2023-07-31T07:11:33;17.50;99.90
24226;DHT22;51462;51.422;5.514;2023-07-31T07:13:59;17.50;99.90
24226;DHT22;51462;51.422;5.514;2023-07-31T07:16:25;17.30;99.90
24226;DHT22;51462;51.422;5.514;2023-07-31T07:18:51;17.50;99.90
24226;DHT22;51462;51.422;5.514;2023-07-31T07:21:17;17.40;99.90
24226;DHT22;51462;51.422;5.514;2023-07-31T07:23:43;17.50;99.90
24226;DHT22;51462;51.422;5.514;2023-07-31T07:26:08;17.40;99.90
24226;DHT22;51462;51.422;5.514;2023-07-31T07:28:34;17.20;99.90
24226;DHT22;51462;51.422;5.514;2023-07-31T07:30:59;17.30;99.90
24226;DHT22;51462;51.422;5.514;2023-07-31T07:33:25;17.40;99.90
24226;DHT22;51462;51.422;5.514;2023-07-31T07:35:51;17.50;99.90
24226;DHT22;51462;51.422;5.514;2023-07-31T07:38:16;17.70;99.90
24226;DHT22;51462;51.422;5.514;2023-07-31T07:40:44;17.50;99.90
24226;DHT22;51462;51.422;5.514;2023-07-31T07:43:12;17.60;99.90
24226;DHT22;51462;51.422;5.514;2023-07-31T07:45:37;17.50;99.90
24226;DHT22;51462;51.422;5.514;2023-07-31T07:48:03;17.60;99.90
24226;DHT22;51462;51.422;5.514;2023-07-31T07:50:29;17.70;99.90
24226;DHT22;51462;51.422;5.514;2023-07-31T07:52:54;17.60;99.90
24226;DHT22;51462;51.422;5.514;2023-07-31T07:55:20;17.50;99.90
24226;DHT22;51462;51.422;5.514;2023-07-31T07:57:46;17.30;99.90
24226;DHT22;51462;51.422;5.514;2023-07-31T08:00:12;17.30;99.90
24226;DHT22;51462;51.422;5.514;2023-07-31T08:02:38;17.40;99.90
24226;DHT22;51462;51.422;5.514;2023-07-31T08:05:04;17.50;99.90
24226;DHT22;51462;51.422;5.514;2023-07-31T08:07:30;17.50;99.90
24226;DHT22;51462;51.422;5.514;2023-07-31T08:09:55;17.40;99.90
24226;DHT22;51462;51.422;5.514;2023-07-31T08:12:21;17.30;99.90
24226;DHT22;51462;51.422;5.514;2023-07-31T08:14:46;17.30;99.90
24226;DHT22;51462;51.422;5.514;2023-07-31T08:17:12;17.40;99.90
24226;DHT22;51462;51.422;5.514;2023-07-31T08:19:38;17.30;99.90
24226;DHT22;51462;51.422;5.514;2023-07-31T08:22:03;17.40;99.90
24226;DHT22;51462;51.422;5.514;2023-07-31T08:24:29;17.30;99.90
24226;DHT22;51462;51.422;5.514;2023-07-31T08:26:54;17.40;99.90
24226;DHT22;51462;51.422;5.514;2023-07-31T08:29:20;17.40;99.90
24226;DHT22;51462;51.422;5.514;2023-07-31T08:31:45;17.40;99.90
24226;DHT22;51462;51.422;5.514;2023-07-31T08:34:11;17.40;99.90
24226;DHT22;51462;51.422;5.514;2023-07-31T08:36:37;17.60;99.90
24226;DHT22;51462;51.422;5.514;2023-07-31T08:39:02;17.70;99.90
24226;DHT22;51462;51.422;5.514;2023-07-31T08:41:29;17.50;99.90
24226;DHT22;51462;51.422;5.514;2023-07-31T08:43:55;17.60;99.90
24226;DHT22;51462;51.422;5.514;2023-07-31T08:46:22;17.60;99.90
24226;DHT22;51462;51.422;5.514;2023-07-31T08:48:47;17.50;99.90
24226;DHT22;51462;51.422;5.514;2023-07-31T08:51:14;17.50;99.90
24226;DHT22;51462;51.422;5.514;2023-07-31T08:53:40;17.50;99.90
24226;DHT22;51462;51.422;5.514;2023-07-31T08:56:07;17.60;99.90
24226;DHT22;51462;51.422;5.514;2023-07-31T08:58:33;17.50;99.90
24226;DHT22;51462;51.422;5.514;2023-07-31T09:01:01;17.60;99.90
24226;DHT22;51462;51.422;5.514;2023-07-31T09:03:29;17.70;99.90
24226;DHT22;51462;51.422;5.514;2023-07-31T09:05:58;17.50;99.90
24226;DHT22;51462;51.422;5.514;2023-07-31T09:08:26;17.60;99.90
24226;DHT22;51462;51.422;5.514;2023-07-31T09:10:59;17.60;99.90
24226;DHT22;51462;51.422;5.514;2023-07-31T09:13:26;17.50;99.90
24226;DHT22;51462;51.422;5.514;2023-07-31T09:15:53;17.60;99.90
24226;DHT22;51462;51.422;5.514;2023-07-31T09:18:18;17.80;99.90
24226;DHT22;51462;51.422;5.514;2023-07-31T09:21:00;17.80;99.90
24226;DHT22;51462;51.422;5.514;2023-07-31T09:23:26;17.80;99.90
24226;DHT22;51462;51.422;5.514;2023-07-31T09:26:04;17.70;99.90
24226;DHT22;51462;51.422;5.514;2023-07-31T09:28:31;17.70;99.90
24226;DHT22;51462;51.422;5.514;2023-07-31T09:30:57;17.80;99.90
24226;DHT22;51462;51.422;5.514;2023-07-31T09:33:22;17.80;99.90
24226;DHT22;51462;51.422;5.514;2023-07-31T09:35:48;17.90;99.90
24226;DHT22;51462;51.422;5.514;2023-07-31T09:38:14;17.90;99.90
24226;DHT22;51462;51.422;5.514;2023-07-31T09:40:46;17.90;99.90
24226;DHT22;51462;51.422;5.514;2023-07-31T09:43:14;17.80;99.90
24226;DHT22;51462;51.422;5.514;2023-07-31T09:45:43;17.70;99.90
24226;DHT22;51462;51.422;5.514;2023-07-31T09:48:16;17.80;99.90
24226;DHT22;51462;51.422;5.514;2023-07-31T09:50:47;17.80;99.90
24226;DHT22;51462;51.422;5.514;2023-07-31T09:53:13;17.90;99.90
24226;DHT22;51462;51.422;5.514;2023-07-31T09:55:40;17.80;99.90
24226;DHT22;51462;51.422;5.514;2023-07-31T09:58:08;17.90;99.90
24226;DHT22;51462;51.422;5.514;2023-07-31T10:00:35;17.90;99.90
24226;DHT22;51462;51.422;5.514;2023-07-31T10:03:03;18.00;99.90
24226;DHT22;51462;51.422;5.514;2023-07-31T10:05:34;18.00;99.90
24226;DHT22;51462;51.422;5.514;2023-07-31T10:07:59;18.00;99.90
24226;DHT22;51462;51.422;5.514;2023-07-31T10:10:26;18.00;99.90
24226;DHT22;51462;51.422;5.514;2023-07-31T10:12:54;18.00;99.90
24226;DHT22;51462;51.422;5.514;2023-07-31T10:15:21;18.00;99.90
24226;DHT22;51462;51.422;5.514;2023-07-31T10:17:48;18.00;99.90
24226;DHT22;51462;51.422;5.514;2023-07-31T10:20:15;18.10;99.90
24226;DHT22;51462;51.422;5.514;2023-07-31T10:22:42;18.20;99.90
24226;DHT22;51462;51.422;5.514;2023-07-31T10:25:08;18.20;99.90
24226;DHT22;51462;51.422;5.514;2023-07-31T10:27:35;18.20;99.90
24226;DHT22;51462;51.422;5.514;2023-07-31T10:30:04;18.20;99.90
24226;DHT22;51462;51.422;5.514;2023-07-31T10:32:30;18.10;99.90
24226;DHT22;51462;51.422;5.514;2023-07-31T10:34:57;18.10;99.90
24226;DHT22;51462;51.422;5.514;2023-07-31T10:37:28;18.10;99.90
24226;DHT22;51462;51.422;5.514;2023-07-31T10:44:58;18.20;99.90
24226;DHT22;51462;51.422;5.514;2023-07-31T10:47:24;18.20;99.90
24226;DHT22;51462;51.422;5.514;2023-07-31T10:49:50;18.20;99.90
24226;DHT22;51462;51.422;5.514;2023-07-31T10:52:20;18.30;99.90
24226;DHT22;51462;51.422;5.514;2023-07-31T10:54:49;18.30;99.90
24226;DHT22;51462;51.422;5.514;2023-07-31T10:57:22;18.40;99.90
24226;DHT22;51462;51.422;5.514;2023-07-31T10:59:49;18.40;99.90
24226;DHT22;51462;51.422;5.514;2023-07-31T11:02:27;18.60;99.90
24226;DHT22;51462;51.422;5.514;2023-07-31T11:05:11;18.70;99.90
24226;DHT22;51462;51.422;5.514;2023-07-31T11:07:49;18.90;99.90
24226;DHT22;51462;51.422;5.514;2023-07-31T11:10:18;18.90;99.90
24226;DHT22;51462;51.422;5.514;2023-07-31T11:12:45;18.90;99.90
24226;DHT22;51462;51.422;5.514;2023-07-31T11:15:11;18.80;99.90
24226;DHT22;51462;51.422;5.514;2023-07-31T11:17:40;18.80;99.90
24226;DHT22;51462;51.422;5.514;2023-07-31T11:20:07;18.70;99.90
24226;DHT22;51462;51.422;5.514;2023-07-31T11:22:37;18.70;99.90
24226;DHT22;51462;51.422;5.514;2023-07-31T11:25:03;18.80;99.90
24226;DHT22;51462;51.422;5.514;2023-07-31T11:27:29;18.80;99.90
24226;DHT22;51462;51.422;5.514;2023-07-31T11:30:02;18.80;99.90
24226;DHT22;51462;51.422;5.514;2023-07-31T11:32:28;18.90;99.90
24226;DHT22;51462;51.422;5.514;2023-07-31T11:34:54;18.90;99.90
24226;DHT22;51462;51.422;5.514;2023-07-31T11:37:20;19.00;99.90
24226;DHT22;51462;51.422;5.514;2023-07-31T11:40:01;19.00;99.90
24226;DHT22;51462;51.422;5.514;2023-07-31T11:42:27;19.00;99.90
24226;DHT22;51462;51.422;5.514;2023-07-31T11:44:52;18.90;99.90
24226;DHT22;51462;51.422;5.514;2023-07-31T11:47:18;18.90;99.90
24226;DHT22;51462;51.422;5.514;2023-07-31T11:49:45;18.80;99.90
24226;DHT22;51462;51.422;5.514;2023-07-31T11:52:12;18.80;99.90
24226;DHT22;51462;51.422;5.514;2023-07-31T11:54:38;18.70;99.90
24226;DHT22;51462;51.422;5.514;2023-07-31T11:57:04;18.70;99.90
24226;DHT22;51462;51.422;5.514;2023-07-31T11:59:30;18.60;99.90
24226;DHT22;51462;51.422;5.514;2023-07-31T12:01:56;18.70;99.90
24226;DHT22;51462;51.422;5.514;2023-07-31T12:04:22;18.60;99.90
24226;DHT22;51462;51.422;5.514;2023-07-31T12:06:48;18.50;99.90
24226;DHT22;51462;51.422;5.514;2023-07-31T12:09:15;18.70;99.90
24226;DHT22;51462;51.422;5.514;2023-07-31T12:11:45;18.60;99.90
24226;DHT22;51462;51.422;5.514;2023-07-31T12:14:27;18.70;99.90
24226;DHT22;51462;51.422;5.514;2023-07-31T12:16:59;18.80;99.90
24226;DHT22;51462;51.422;5.514;2023-07-31T12:19:25;18.80;99.90
24226;DHT22;51462;51.422;5.514;2023-07-31T12:21:56;18.80;99.90
24226;DHT22;51462;51.422;5.514;2023-07-31T12:24:21;18.80;99.90
24226;DHT22;51462;51.422;5.514;2023-07-31T12:26:48;18.90;99.90
24226;DHT22;51462;51.422;5.514;2023-07-31T12:29:14;18.90;99.90
24226;DHT22;51462;51.422;5.514;2023-07-31T12:31:43;18.90;99.90
24226;DHT22;51462;51.422;5.514;2023-07-31T12:34:19;18.90;99.90
24226;DHT22;51462;51.422;5.514;2023-07-31T12:36:46;18.90;99.90
24226;DHT22;51462;51.422;5.514;2023-07-31T12:39:14;18.90;99.90
24226;DHT22;51462;51.422;5.514;2023-07-31T12:41:40;18.90;99.90
24226;DHT22;51462;51.422;5.514;2023-07-31T12:44:06;18.90;99.90
24226;DHT22;51462;51.422;5.514;2023-07-31T12:46:31;19.00;99.90
24226;DHT22;51462;51.422;5.514;2023-07-31T12:48:57;19.00;99.90
24226;DHT22;51462;51.422;5.514;2023-07-31T12:51:22;19.00;99.90
24226;DHT22;51462;51.422;5.514;2023-07-31T12:53:48;19.00;99.90
24226;DHT22;51462;51.422;5.514;2023-07-31T12:56:14;19.10;99.90
24226;DHT22;51462;51.422;5.514;2023-07-31T12:58:39;19.10;99.90
24226;DHT22;51462;51.422;5.514;2023-07-31T13:01:05;19.10;99.90
24226;DHT22;51462;51.422;5.514;2023-07-31T13:03:31;19.20;99.90
24226;DHT22;51462;51.422;5.514;2023-07-31T13:05:57;19.20;99.90
24226;DHT22;51462;51.422;5.514;2023-07-31T13:08:23;19.20;99.90
24226;DHT22;51462;51.422;5.514;2023-07-31T13:10:48;19.20;99.90
24226;DHT22;51462;51.422;5.514;2023-07-31T13:13:14;19.20;99.90
24226;DHT22;51462;51.422;5.514;2023-07-31T13:15:39;19.20;99.90
24226;DHT22;51462;51.422;5.514;2023-07-31T13:18:05;19.30;99.90
24226;DHT22;51462;51.422;5.514;2023-07-31T13:20:31;19.30;99.90
24226;DHT22;51462;51.422;5.514;2023-07-31T13:22:56;19.30;99.90
24226;DHT22;51462;51.422;5.514;2023-07-31T13:25:22;19.30;99.90
24226;DHT22;51462;51.422;5.514;2023-07-31T13:27:48;19.40;99.90
24226;DHT22;51462;51.422;5.514;2023-07-31T13:30:13;19.40;99.90
24226;DHT22;51462;51.422;5.514;2023-07-31T13:32:39;19.40;99.90
24226;DHT22;51462;51.422;5.514;2023-07-31T13:35:06;19.40;99.90
24226;DHT22;51462;51.422;5.514;2023-07-31T13:37:35;19.40;99.90
24226;DHT22;51462;51.422;5.514;2023-07-31T13:40:01;19.40;99.90
24226;DHT22;51462;51.422;5.514;2023-07-31T13:42:26;19.30;99.90
24226;DHT22;51462;51.422;5.514;2023-07-31T13:44:53;19.30;99.90
24226;DHT22;51462;51.422;5.514;2023-07-31T13:47:21;19.30;99.90
24226;DHT22;51462;51.422;5.514;2023-07-31T13:49:47;19.40;99.90
24226;DHT22;51462;51.422;5.514;2023-07-31T13:52:12;19.40;99.90
24226;DHT22;51462;51.422;5.514;2023-07-31T13:54:38;19.40;99.90
24226;DHT22;51462;51.422;5.514;2023-07-31T13:57:03;19.40;99.90
24226;DHT22;51462;51.422;5.514;2023-07-31T13:59:29;19.40;99.90
24226;DHT22;51462;51.422;5.514;2023-07-31T14:01:55;19.30;99.90
24226;DHT22;51462;51.422;5.514;2023-07-31T14:04:20;19.30;99.90
24226;DHT22;51462;51.422;5.514;2023-07-31T14:06:46;19.30;99.90
24226;DHT22;51462;51.422;5.514;2023-07-31T14:09:13;19.30;99.90
24226;DHT22;51462;51.422;5.514;2023-07-31T14:11:39;19.30;99.90
24226;DHT22;51462;51.422;5.514;2023-07-31T14:14:05;19.30;99.90
24226;DHT22;51462;51.422;5.514;2023-07-31T14:16:30;19.20;99.90
24226;DHT22;51462;51.422;5.514;2023-07-31T14:18:56;19.20;99.90
24226;DHT22;51462;51.422;5.514;2023-07-31T14:21:25;19.20;99.90
24226;DHT22;51462;51.422;5.514;2023-07-31T14:23:50;19.20;99.90
24226;DHT22;51462;51.422;5.514;2023-07-31T14:26:16;19.20;99.90
24226;DHT22;51462;51.422;5.514;2023-07-31T14:28:42;19.20;99.90
24226;DHT22;51462;51.422;5.514;2023-07-31T14:31:08;19.20;99.90
24226;DHT22;51462;51.422;5.514;2023-07-31T14:33:33;19.30;99.90
24226;DHT22;51462;51.422;5.514;2023-07-31T14:35:59;19.20;99.90
24226;DHT22;51462;51.422;5.514;2023-07-31T14:38:24;19.20;99.90
24226;DHT22;51462;51.422;5.514;2023-07-31T14:40:51;19.20;99.90
24226;DHT22;51462;51.422;5.514;2023-07-31T14:43:16;19.30;99.90
24226;DHT22;51462;51.422;5.514;2023-07-31T14:45:42;19.20;99.90
24226;DHT22;51462;51.422;5.514;2023-07-31T14:48:07;19.20;99.90
24226;DHT22;51462;51.422;5.514;2023-07-31T14:50:33;19.20;99.90
24226;DHT22;51462;51.422;5.514;2023-07-31T14:52:59;19.10;99.90
24226;DHT22;51462;51.422;5.514;2023-07-31T14:55:25;19.10;99.90
24226;DHT22;51462;51.422;5.514;2023-07-31T14:57:51;19.00;99.90
24226;DHT22;51462;51.422;5.514;2023-07-31T15:00:16;19.00;99.90
24226;DHT22;51462;51.422;5.514;2023-07-31T15:02:42;19.00;99.90
24226;DHT22;51462;51.422;5.514;2023-07-31T15:05:08;19.00;99.90
24226;DHT22;51462;51.422;5.514;2023-07-31T15:07:34;18.90;99.90
24226;DHT22;51462;51.422;5.514;2023-07-31T15:10:01;18.90;99.90
24226;DHT22;51462;51.422;5.514;2023-07-31T15:12:27;19.00;99.90
24226;DHT22;51462;51.422;5.514;2023-07-31T15:14:53;18.80;99.90
24226;DHT22;51462;51.422;5.514;2023-07-31T15:17:18;18.80;99.90
24226;DHT22;51462;51.422;5.514;2023-07-31T15:19:44;18.90;99.90
24226;DHT22;51462;51.422;5.514;2023-07-31T15:22:10;18.80;99.90
24226;DHT22;51462;51.422;5.514;2023-07-31T15:24:36;18.90;99.90
24226;DHT22;51462;51.422;5.514;2023-07-31T15:27:01;18.90;99.90
24226;DHT22;51462;51.422;5.514;2023-07-31T15:29:28;18.80;99.90
24226;DHT22;51462;51.422;5.514;2023-07-31T15:31:54;18.80;99.90
24226;DHT22;51462;51.422;5.514;2023-07-31T15:34:20;18.80;99.90
24226;DHT22;51462;51.422;5.514;2023-07-31T15:36:46;18.70;99.90